Decoded Metar for MMCE (CIUDAD DEL CARMEN in MEXICO) (IATA:CME) | Meteo·Mobile Aviation Weather
aviador You're here:

MMCE Decoded Metar

CIUDAD DEL CARMEN in MEXICO
Report Time2018-11-19 20:45:00
UTC Time2018-11-19 21:54:33
Flight Rules Old
Wind030° at 11 kt
W.Decomp.*RWY 31: 2.3 kt HW 10.8 kt RCW
W.Rank030° ranks 10
Current wind is above 030° avg. (9.0)
Visibility9999 m
Phenomena:N/A
Clouds:N/A
Expected CloudBase > 1,200 ft AGL from Temp-Dew spread
CeilingNone
Temp26°C (ISA +11)
Dew Point23°C (84% RH)
QNH1014 hPa
Density Alt1,614 ft
Elevation7 ft
Report Wrong Elevation
Raw Report
METAR MMCE 192045Z 03011KT 7SM SKC 26/23 A2995
RMK SLP136 57027 958 AC=

Extra information for MMCE:More info

Metar Taf Metar & Taf Last 4 Metars F.Rules Stats Wind Profile Meteogram Temp Stats Airport Information Weather charts Add Link Nearby VenuesMetar ALERT Operation Metar Decoded Social comments